Terminal Aerodrome Forecast
Issued by NWS

Home | Current Version | Previous Version | Text Only | Print | Product List | Glossary On
Versions: 1 2 3 4 5 6 7 8 9 10 11 12 13 14 15
000
FTUS45 KPIH 061856 AAA
TAFSUN
TAF AMD
KSUN 061856Z 0619/0718 01010KT P6SM -SHRA VCTS SCT050CB BKN090
      OVC130
     FM062100 14015KT P6SM -SHRA VCTS SCT040CB BKN090 OVC130
     FM070000 VRB05KT P6SM VCTS SCT040CB BKN090 OVC130
     FM070600 36015KT P6SM -SHRA SCT015 OVC050
     FM071500 36007KT P6SM VCSH BKN050 OVC090=

USA.gov is the U.S. government's official web portal to all federal, state and local government web resources and services.